首页
METAR-TAF:

METAR-TAF

机场 :

弗罗茨瓦夫, 波兰

纬度: 51-06N, 经度: 016-53E, 海拔: 120米

当前天气观测

该预报发布于34分钟前的08:00 UTC
风速2节,风向多变
温度 23°C
湿度 53%
气压 1013 hPa
能见度10公里或以上
1500米以下无云,无积雨云

METAR: EPWR 190800Z VRB02KT CAVOK 23/13 Q1013

时间: 10:34 (08:34 UTC)

预报

该预报发布于3小时和4分钟前的05:30 UTC
预报有效从19日的 06点(UTC)到 20日的 06点(UTC)
风速4节,风向东南
能见度10公里或以上
1500米以下无云,无积雨云
成为
从 19日的 08点(UTC)到 19日的 10点(UTC)
风速10节,风向西转西北
短暂存在
从 19日的 08点(UTC)到 19日的 12点(UTC)
散云层高于3000英尺, 积雨云.
短暂存在
从 19日的 12点(UTC)到 19日的 18点(UTC)
多云层高于3000英尺, 积雨云.
阵雨
成为
从 19日的 18点(UTC)到 19日的 20点(UTC)
风速2节,风向多变

TAF: EPWR 190530Z 1906/2006 13004KT CAVOK BECMG 1908/1910 29010KT TEMPO 1908/1912 SCT030CB TEMPO 1912/1918 SHRA BKN030CB BECMG 1918/1920 VRB02KT

超过4000个机场的气象观测和天气预报(METAR&TAF报告)。

可查询的气象台以黄色和红色小点在地图上表示。

将鼠标移到小点上方,可查看气象台名称。

然后点击查看天气观测和预报。

如需切换地图:点击带黑十字的绿色按钮放大地图;点击带横线的绿色按钮缩小地图;或者点击绿色箭头查看邻近地区的地图。


METAR-TAF: